메인 페이지
METAR-TAF:

METAR-TAF

공항 :

포르장티, 가봉

위도: 00-42S, 경도: 008-45E, 고도: 3m

현재 날씨관측

예보는 46분 전, 23:00시(UTC)에 발표되었습니다.
남서6kt
온도 27°C
습도 89%
기압 1015 hPa
시정 10km 이상
고도 800ft 상공 구름 보통
고도 3000ft 상공 구름 많음

METAR: FOOG 012300Z 22006KT 9999 SCT008 BKN030 27/25 Q1015

시각: 00:46 (23:46 UTC)

예보

예보는 46분 전, 23:00시(UTC)에 발표되었습니다.
예보 대상 시간: 02일 00시부터 02일 24시까지 (UTC)
남남서10kt
시정 10km 이상
고도 1100ft 상공 구름 보통
고도 2000ft 상공 구름 조금, 적란운.
고도 3300ft 상공 구름 많음
확률 30% :
일시적
02일 03시부터 02일 08시까지 (UTC)
뇌우

TAF: FOOG 012300Z 0200/0224 20010KT 9999 SCT011 FEW020CB BKN033 PROB30 TEMPO 0203/0208 TS

4,000개 이상의 공항 관측 자료 및 예보 (METAR 및 TAF 보고).

지도상에서 검색 가능한 기상관측소가 노란 점과 빨간 점으로 표시되어 있습니다.

기상관측소 명을 보려면 표시 위로 마우스를 이동하세요.

날씨 관측과 예보를 보려면 클릭하세요.

지도 변경 : 확대하려면 엑스 표시가 있는 녹색 버튼, 축소하려면 빼기 표시가 있는 녹색 버튼, 다음 페이지의 지도를 보려면 녹색 화살표를 클릭하세요.


METAR-TAF: